createdAt,value
2023-01-21T00:00:14.298Z,86.29
2023-01-21T00:02:43.620Z,86.19
2023-01-21T00:05:12.808Z,86.31
2023-01-21T00:07:42.013Z,86.49
2023-01-21T00:10:11.775Z,86.31
2023-01-21T00:12:41.207Z,86.12
2023-01-21T00:15:13.456Z,85.96
2023-01-21T00:17:44.002Z,85.83
2023-01-21T00:20:14.076Z,86.06
2023-01-21T00:22:43.336Z,85.89
2023-01-21T00:25:12.584Z,86.20
2023-01-21T00:27:42.082Z,85.94
2023-01-21T00:30:14.976Z,86.02
2023-01-21T00:32:44.332Z,86.10
2023-01-21T00:35:13.512Z,85.87
2023-01-21T00:37:42.717Z,86.32
2023-01-21T00:40:12.713Z,86.37
2023-01-21T00:42:42.301Z,86.28
2023-01-21T00:45:14.456Z,85.94
2023-01-21T00:47:43.679Z,85.96
2023-01-21T00:50:13.886Z,85.92
2023-01-21T00:52:43.296Z,85.97
2023-01-21T00:55:12.527Z,86.11
2023-01-21T00:57:41.728Z,85.99
2023-01-21T01:00:16.447Z,86.15
2023-01-21T01:02:46.896Z,86.17
2023-01-21T01:05:16.585Z,85.72
2023-01-21T01:07:47.363Z,85.79
2023-01-21T01:10:16.669Z,85.72
2023-01-21T01:12:46.253Z,85.94
2023-01-21T01:15:18.133Z,85.78
2023-01-21T01:17:47.297Z,85.80
2023-01-21T01:20:16.673Z,85.64
2023-01-21T01:22:45.964Z,85.44
2023-01-21T01:25:15.193Z,84.86
2023-01-21T01:27:44.404Z,84.26
2023-01-21T01:30:14.623Z,84.28
2023-01-21T01:32:46.477Z,83.63
2023-01-21T01:35:15.641Z,83.51
2023-01-21T01:37:44.858Z,83.46
2023-01-21T01:40:14.991Z,83.13
2023-01-21T01:42:44.346Z,82.83
2023-01-21T01:45:20.163Z,82.30
2023-01-21T01:47:58.344Z,82.43
2023-01-21T01:50:28.677Z,82.47
2023-01-21T01:52:58.280Z,82.58
2023-01-21T01:55:27.490Z,82.16
2023-01-21T01:57:57.627Z,82.11
2023-01-21T02:00:27.598Z,81.83
2023-01-21T02:03:12.407Z,81.51
2023-01-21T02:05:43.744Z,81.14
2023-01-21T02:08:13.370Z,81.24
2023-01-21T02:10:42.561Z,80.97
2023-01-21T02:13:12.382Z,80.95
2023-01-21T02:15:44.784Z,80.90
2023-01-21T02:18:20.943Z,80.91
2023-01-21T02:21:08.098Z,81.04
2023-01-21T02:23:48.900Z,80.60
2023-01-21T02:26:42.015Z,80.41
2023-01-21T02:29:23.141Z,80.60
2023-01-21T02:32:07.457Z,81.01
2023-01-21T02:34:43.620Z,80.93
2023-01-21T02:37:13.749Z,80.72
2023-01-21T02:39:56.085Z,80.81
2023-01-21T02:42:27.483Z,80.63
2023-01-21T02:45:01.586Z,80.46
2023-01-21T02:47:32.822Z,80.36
2023-01-21T02:50:07.246Z,80.26
2023-01-21T02:52:36.457Z,80.18
2023-01-21T02:55:06.435Z,80.24
2023-01-21T02:57:41.073Z,79.88
2023-01-21T03:00:12.641Z,80.00
2023-01-21T03:02:56.771Z,80.48
2023-01-21T03:05:34.323Z,80.48
2023-01-21T03:08:09.439Z,80.60
2023-01-21T03:10:42.040Z,80.29
2023-01-21T03:13:15.801Z,80.39
2023-01-21T03:16:00.800Z,79.98
2023-01-21T03:18:32.526Z,79.70
2023-01-21T03:21:06.433Z,80.05
2023-01-21T03:23:38.756Z,79.75
2023-01-21T03:26:10.206Z,79.68
2023-01-21T03:28:42.469Z,79.82
2023-01-21T03:31:13.483Z,79.47
2023-01-21T03:33:49.107Z,79.48
2023-01-21T03:36:24.117Z,79.29
2023-01-21T03:38:55.631Z,79.09
2023-01-21T03:41:26.790Z,79.10
2023-01-21T03:43:58.458Z,79.16
2023-01-21T03:46:30.040Z,79.21
2023-01-21T03:49:01.375Z,79.36
2023-01-21T03:51:35.965Z,79.25
2023-01-21T03:54:05.390Z,79.31
2023-01-21T03:56:34.722Z,79.15
2023-01-21T03:59:03.977Z,79.34
2023-01-21T04:01:33.300Z,78.98
2023-01-21T04:04:02.508Z,79.00
2023-01-21T04:06:36.820Z,78.57
2023-01-21T04:09:06.229Z,78.71
2023-01-21T04:11:35.514Z,78.34
2023-01-21T04:14:04.830Z,78.59
2023-01-21T04:16:34.134Z,78.35
2023-01-21T04:19:03.467Z,78.74
2023-01-21T04:21:35.312Z,78.40
2023-01-21T04:24:04.640Z,78.44
2023-01-21T04:26:33.950Z,78.27
2023-01-21T04:29:03.308Z,78.15
2023-01-21T04:31:32.563Z,78.60
2023-01-21T04:34:01.810Z,78.42
2023-01-21T04:36:31.075Z,78.46
2023-01-21T04:39:02.968Z,78.18
2023-01-21T04:41:32.301Z,78.01
2023-01-21T04:44:01.520Z,78.52
2023-01-21T04:46:30.757Z,78.66
2023-01-21T04:49:00.050Z,78.34
2023-01-21T04:51:29.376Z,78.52
2023-01-21T04:53:58.631Z,78.11
2023-01-21T04:56:30.485Z,77.48
2023-01-21T04:58:59.799Z,77.96
2023-01-21T05:01:29.114Z,78.36
2023-01-21T05:03:58.376Z,78.02
2023-01-21T05:06:27.676Z,78.35
2023-01-21T05:08:56.945Z,78.03
2023-01-21T05:11:26.251Z,77.72
2023-01-21T05:13:58.065Z,78.24
2023-01-21T05:16:27.450Z,78.04
2023-01-21T05:18:57.049Z,78.20
2023-01-21T05:21:26.316Z,78.20
2023-01-21T05:23:55.589Z,78.60
2023-01-21T05:26:24.815Z,78.78
2023-01-21T05:28:54.032Z,78.34
2023-01-21T05:31:25.913Z,78.35
2023-01-21T05:33:55.172Z,78.28
2023-01-21T05:36:24.399Z,78.50
2023-01-21T05:38:53.656Z,78.25
2023-01-21T05:41:22.933Z,78.59
2023-01-21T05:43:52.131Z,78.64
2023-01-21T05:46:21.449Z,78.34
2023-01-21T05:48:53.372Z,78.03
2023-01-21T05:51:22.691Z,77.91
2023-01-21T05:53:52.014Z,78.28
2023-01-21T05:56:21.276Z,78.30
2023-01-21T05:58:50.515Z,78.10
2023-01-21T06:01:19.796Z,77.87
2023-01-21T06:03:49.045Z,78.05
2023-01-21T06:06:20.862Z,77.68
2023-01-21T06:08:50.095Z,77.55
2023-01-21T06:11:19.402Z,77.58
2023-01-21T06:13:48.661Z,77.78
2023-01-21T06:16:17.917Z,77.96
2023-01-21T06:18:47.223Z,77.69
2023-01-21T06:21:16.448Z,77.58
2023-01-21T06:23:48.312Z,77.58
2023-01-21T06:26:17.528Z,77.64
2023-01-21T06:28:46.804Z,77.63
2023-01-21T06:31:16.144Z,77.38
2023-01-21T06:33:45.384Z,77.14
2023-01-21T06:36:14.612Z,77.32
2023-01-21T06:38:43.837Z,77.51
2023-01-21T06:41:15.648Z,77.38
2023-01-21T06:43:45.207Z,77.63
2023-01-21T06:46:14.595Z,77.87
2023-01-21T06:48:44.284Z,78.18
2023-01-21T06:51:13.558Z,78.37
2023-01-21T06:53:42.822Z,78.65
2023-01-21T06:56:12.080Z,78.58
2023-01-21T06:58:43.890Z,78.91
2023-01-21T07:01:13.144Z,78.95
2023-01-21T07:03:42.398Z,78.96
2023-01-21T07:06:11.641Z,79.62
2023-01-21T07:08:40.943Z,79.62
2023-01-21T07:11:10.199Z,79.76
2023-01-21T07:13:39.523Z,79.38
2023-01-21T07:16:11.793Z,79.48
2023-01-21T07:18:41.053Z,79.76
2023-01-21T07:21:10.217Z,79.82
2023-01-21T07:23:39.472Z,79.98
2023-01-21T07:26:09.014Z,79.84
2023-01-21T07:28:38.284Z,79.94
2023-01-21T07:31:08.779Z,80.08
2023-01-21T07:33:40.705Z,79.81
2023-01-21T07:36:10.280Z,80.44
2023-01-21T07:38:39.563Z,80.28
2023-01-21T07:41:08.816Z,80.47
2023-01-21T07:43:38.133Z,80.35
2023-01-21T07:46:07.519Z,79.89
2023-01-21T07:48:36.938Z,79.83
2023-01-21T07:51:08.933Z,79.86
2023-01-21T07:53:38.270Z,79.79
2023-01-21T07:56:08.081Z,79.79
2023-01-21T07:58:37.296Z,80.08
2023-01-21T08:01:07.909Z,80.21
2023-01-21T08:03:37.430Z,80.18
2023-01-21T08:06:09.868Z,79.95
2023-01-21T08:08:39.124Z,79.76
2023-01-21T08:11:08.366Z,79.42
2023-01-21T08:13:37.594Z,79.41
2023-01-21T08:16:07.333Z,79.91
2023-01-21T08:18:36.573Z,79.65
2023-01-21T08:21:05.998Z,79.72
2023-01-21T08:23:37.813Z,79.56
2023-01-21T08:33:06.566Z,79.92
2023-01-21T08:35:35.910Z,79.46
2023-01-21T08:38:05.602Z,79.80
2023-01-21T08:40:37.477Z,79.52
2023-01-21T08:50:24.324Z,80.02
2023-01-21T08:52:54.398Z,80.16
2023-01-21T08:55:25.330Z,80.19
2023-01-21T08:57:58.470Z,79.59
2023-01-21T09:04:28.983Z,78.79
2023-01-21T09:06:58.292Z,78.63
2023-01-21T09:09:27.517Z,78.58
2023-01-21T09:12:00.153Z,78.85
2023-01-21T09:14:32.042Z,78.75
2023-01-21T09:17:01.282Z,79.23
2023-01-21T09:19:30.501Z,78.96
2023-01-21T09:25:29.252Z,78.70
2023-01-21T09:31:31.822Z,78.22
2023-01-21T09:34:02.384Z,78.64
2023-01-21T09:36:32.680Z,78.61
2023-01-21T09:39:02.408Z,79.25
2023-01-21T09:41:33.158Z,79.10
2023-01-21T09:44:05.926Z,77.93
2023-01-21T09:50:10.434Z,78.39
2023-01-21T09:52:42.223Z,78.47
2023-01-21T09:55:17.611Z,78.29
2023-01-21T09:58:04.962Z,78.61
2023-01-21T10:00:36.556Z,78.08
2023-01-21T10:03:13.723Z,77.53
2023-01-21T10:06:00.585Z,77.25
2023-01-21T10:08:40.469Z,77.43
2023-01-21T10:11:18.838Z,76.79
2023-01-21T10:14:00.095Z,76.77
2023-01-21T10:16:34.013Z,76.46
2023-01-21T10:19:04.070Z,76.41
2023-01-21T10:21:38.431Z,76.10
2023-01-21T10:24:12.232Z,75.78
2023-01-21T10:26:41.447Z,75.54
2023-01-21T10:29:14.957Z,75.75
2023-01-21T10:31:46.685Z,75.45
2023-01-21T10:34:16.880Z,75.65
2023-01-21T10:36:52.813Z,75.29
2023-01-21T10:39:27.671Z,75.30
2023-01-21T10:42:06.610Z,75.16
2023-01-21T10:44:40.743Z,74.87
2023-01-21T10:47:15.069Z,74.52
2023-01-21T10:50:02.315Z,74.28
2023-01-21T10:52:38.841Z,74.61
2023-01-21T10:55:16.212Z,73.84
2023-01-21T10:57:52.699Z,73.42
2023-01-21T11:00:24.607Z,73.06
2023-01-21T11:16:48.703Z,71.92
2023-01-21T11:19:19.454Z,71.63
2023-01-21T11:22:00.511Z,72.07
2023-01-21T11:24:30.327Z,71.27
2023-01-21T11:27:01.638Z,71.71
2023-01-21T11:29:41.474Z,71.80
2023-01-21T11:32:19.241Z,71.70
2023-01-21T11:34:48.887Z,71.56
2023-01-21T11:37:24.455Z,71.25
2023-01-21T11:39:54.793Z,71.44
2023-01-21T11:42:24.477Z,72.10
2023-01-21T11:44:54.712Z,71.92
2023-01-21T11:47:38.426Z,71.83
2023-01-21T11:50:15.426Z,71.73
2023-01-21T11:52:44.830Z,72.04
2023-01-21T11:55:20.772Z,71.57
2023-01-21T11:57:53.206Z,71.84
2023-01-21T12:00:23.732Z,71.81
2023-01-21T12:02:58.487Z,71.34
2023-01-21T12:05:30.489Z,71.95
2023-01-21T12:08:00.194Z,71.78
2023-01-21T12:10:33.386Z,71.28
2023-01-21T12:13:23.644Z,71.69
2023-01-21T12:16:03.883Z,71.02
2023-01-21T12:18:43.226Z,70.56
2023-01-21T12:21:16.024Z,70.58
2023-01-21T12:23:52.799Z,69.94
2023-01-21T12:26:34.174Z,69.64
2023-01-21T12:29:24.449Z,69.14
2023-01-21T12:31:56.316Z,69.69
2023-01-21T12:34:33.757Z,69.61
2023-01-21T12:37:06.161Z,69.21
2023-01-21T12:39:36.995Z,69.35
2023-01-21T12:42:12.401Z,69.40
2023-01-21T12:44:45.802Z,69.22
2023-01-21T12:47:21.457Z,69.77
2023-01-21T12:49:59.979Z,69.58
2023-01-21T12:52:32.740Z,68.38
2023-01-21T12:55:06.900Z,69.28
2023-01-21T12:57:40.704Z,69.74
2023-01-21T13:00:19.768Z,69.92
2023-01-21T13:02:52.203Z,70.28
2023-01-21T13:05:26.142Z,70.44
2023-01-21T13:07:58.556Z,69.60
2023-01-21T13:10:31.565Z,69.12
2023-01-21T13:13:02.934Z,70.01
2023-01-21T13:15:35.319Z,69.26
2023-01-21T13:18:07.278Z,68.52
2023-01-21T13:20:41.159Z,68.12
2023-01-21T13:23:16.187Z,68.89
2023-01-21T13:25:47.896Z,68.46
2023-01-21T13:28:18.900Z,67.88
2023-01-21T13:30:52.141Z,68.26
2023-01-21T13:33:30.931Z,68.50
2023-01-21T13:36:09.884Z,68.33
2023-01-21T13:38:44.818Z,68.35
2023-01-21T13:41:26.875Z,67.89
2023-01-21T13:44:01.799Z,68.10
2023-01-21T13:46:39.475Z,68.13
2023-01-21T13:49:18.026Z,68.08
2023-01-21T13:51:57.122Z,68.39
2023-01-21T13:54:32.272Z,68.62
2023-01-21T13:57:09.999Z,68.42
2023-01-21T13:59:40.783Z,68.48
2023-01-21T14:02:13.962Z,68.59
2023-01-21T14:04:45.867Z,68.45
2023-01-21T14:07:21.062Z,68.87
2023-01-21T14:09:54.747Z,68.99
2023-01-21T14:12:32.281Z,69.28
2023-01-21T14:15:09.676Z,69.22
2023-01-21T14:17:50.300Z,69.67
2023-01-21T14:20:28.131Z,70.18
2023-01-21T14:23:06.108Z,70.67
2023-01-21T14:25:46.847Z,70.73
2023-01-21T14:28:20.732Z,69.98
2023-01-21T14:30:52.193Z,70.18
2023-01-21T14:33:23.469Z,70.54
2023-01-21T14:35:57.093Z,70.62
2023-01-21T14:38:34.688Z,71.38
2023-01-21T14:41:07.610Z,72.27
2023-01-21T14:43:50.521Z,72.48
2023-01-21T14:46:27.495Z,72.72
2023-01-21T14:49:00.967Z,73.33
2023-01-21T14:51:31.807Z,73.43
2023-01-21T14:54:04.782Z,73.39
2023-01-21T14:56:35.486Z,73.67
2023-01-21T14:59:08.241Z,74.17
2023-01-21T15:01:40.794Z,74.29
2023-01-21T15:04:20.007Z,74.20
2023-01-21T15:06:49.661Z,74.75
2023-01-21T15:09:25.710Z,74.73
2023-01-21T15:11:58.140Z,75.44
2023-01-21T15:14:29.073Z,75.31
2023-01-21T15:16:58.406Z,75.86
2023-01-21T15:19:32.179Z,75.76
2023-01-21T15:22:19.397Z,76.25
2023-01-21T15:25:03.649Z,75.96
2023-01-21T15:27:35.532Z,76.47
2023-01-21T15:30:28.435Z,76.36
2023-01-21T15:32:59.289Z,76.09
2023-01-21T15:35:33.701Z,76.37
2023-01-21T15:38:04.030Z,76.37
2023-01-21T15:40:39.336Z,76.66
2023-01-21T15:43:17.347Z,76.33
2023-01-21T15:45:52.261Z,76.41
2023-01-21T15:48:41.799Z,76.60
2023-01-21T15:51:20.521Z,76.61
2023-01-21T15:53:57.741Z,76.71
2023-01-21T15:56:42.588Z,76.82
2023-01-21T15:59:21.823Z,76.87
2023-01-21T16:02:04.297Z,77.04
2023-01-21T16:04:37.117Z,77.11
2023-01-21T16:07:16.756Z,77.08
2023-01-21T16:09:53.891Z,77.28
2023-01-21T16:12:25.790Z,77.48
2023-01-21T16:15:03.580Z,77.46
2023-01-21T16:17:39.361Z,77.33
2023-01-21T16:20:11.239Z,77.32
2023-01-21T16:22:42.790Z,77.30
2023-01-21T16:25:13.765Z,77.41
2023-01-21T16:27:47.680Z,77.25
2023-01-21T16:30:22.799Z,77.65
2023-01-21T16:33:06.858Z,77.47
2023-01-21T16:35:43.839Z,77.32
2023-01-21T16:38:16.465Z,77.20
2023-01-21T16:40:45.692Z,77.28
2023-01-21T16:43:18.023Z,77.40
2023-01-21T16:45:53.707Z,77.21
2023-01-21T16:48:24.650Z,77.35
2023-01-21T16:50:54.759Z,77.30
2023-01-21T16:53:24.668Z,77.33
2023-01-21T16:55:55.165Z,77.55
2023-01-21T16:58:27.155Z,77.68
2023-01-21T17:01:12.070Z,77.66
2023-01-21T17:03:41.463Z,77.73
2023-01-21T17:06:13.662Z,77.76
2023-01-21T17:08:43.146Z,77.70
2023-01-21T17:11:13.795Z,77.40
2023-01-21T17:13:44.541Z,78.04
2023-01-21T17:16:29.459Z,77.92
2023-01-21T17:19:00.746Z,78.05
2023-01-21T17:21:33.152Z,78.18
2023-01-21T17:24:03.529Z,77.98
2023-01-21T17:26:34.467Z,78.28
2023-01-21T17:29:11.325Z,78.25
2023-01-21T17:31:45.022Z,78.23
2023-01-21T17:34:24.900Z,78.18
2023-01-21T17:36:55.391Z,77.85
2023-01-21T17:39:39.916Z,78.26
2023-01-21T17:42:14.800Z,78.26
2023-01-21T17:44:47.885Z,78.38
2023-01-21T17:47:24.649Z,78.64
2023-01-21T17:49:58.651Z,78.61
2023-01-21T17:52:28.102Z,78.25
2023-01-21T17:55:12.226Z,78.50
2023-01-21T17:57:41.402Z,78.62
2023-01-21T18:00:34.903Z,78.50
2023-01-21T18:03:06.914Z,78.50
2023-01-21T18:05:38.274Z,78.92
2023-01-21T18:08:13.457Z,78.72
2023-01-21T18:10:43.133Z,78.69
2023-01-21T18:13:13.790Z,78.92
2023-01-21T18:15:44.081Z,78.74
2023-01-21T18:18:19.282Z,78.68
2023-01-21T18:20:49.168Z,79.09
2023-01-21T18:23:18.855Z,78.90
2023-01-21T18:25:49.087Z,78.93
2023-01-21T18:28:20.301Z,78.67
2023-01-21T18:30:49.891Z,78.73
2023-01-21T18:33:21.752Z,78.33
2023-01-21T18:35:52.111Z,78.56
2023-01-21T18:38:26.950Z,78.21
2023-01-21T18:40:56.809Z,78.40
2023-01-21T18:43:26.244Z,78.31
2023-01-21T18:45:55.473Z,77.95
2023-01-21T18:48:30.507Z,78.13
2023-01-21T18:50:59.983Z,77.45
2023-01-21T18:53:29.447Z,77.33
2023-01-21T18:55:58.812Z,77.30
2023-01-21T18:58:28.077Z,77.36
2023-01-21T19:00:57.312Z,77.09
2023-01-21T19:03:29.171Z,77.14
2023-01-21T19:05:58.424Z,77.14
2023-01-21T19:08:28.575Z,76.75
2023-01-21T19:10:57.868Z,76.77
2023-01-21T19:13:27.155Z,76.66
2023-01-21T19:15:57.729Z,76.83
2023-01-21T19:18:30.752Z,76.97
2023-01-21T19:20:59.990Z,76.86
2023-01-21T19:23:29.216Z,76.68
2023-01-21T19:25:59.369Z,76.52
2023-01-21T19:28:28.627Z,76.48
2023-01-21T19:30:58.477Z,76.52
2023-01-21T19:33:28.105Z,76.21
2023-01-21T19:36:01.976Z,76.53
2023-01-21T19:38:31.273Z,76.65
2023-01-21T19:41:00.577Z,76.37
2023-01-21T19:43:29.909Z,76.13
2023-01-21T19:46:00.499Z,76.07
2023-01-21T19:48:30.105Z,75.79
2023-01-21T19:51:01.968Z,75.99
2023-01-21T19:53:31.202Z,75.94
2023-01-21T19:56:01.142Z,75.99
2023-01-21T19:58:31.498Z,76.05
2023-01-21T20:01:00.755Z,76.07
2023-01-21T20:03:30.676Z,75.69
2023-01-21T20:06:04.161Z,75.56
2023-01-21T20:08:34.092Z,75.19
2023-01-21T20:11:03.307Z,75.10
2023-01-21T20:13:36.563Z,74.78
2023-01-21T20:16:13.387Z,74.75
2023-01-21T20:18:43.091Z,74.61
2023-01-21T20:21:14.895Z,74.70
2023-01-21T20:23:44.312Z,74.69
2023-01-21T20:26:15.410Z,74.30
2023-01-21T20:28:50.310Z,74.35
2023-01-21T20:31:19.714Z,73.84
2023-01-21T20:33:49.086Z,74.13
2023-01-21T20:36:22.918Z,73.77
2023-01-21T20:38:52.232Z,73.96
2023-01-21T20:41:21.653Z,74.01
2023-01-21T20:43:50.824Z,74.74
2023-01-21T20:46:21.521Z,74.83
2023-01-21T20:48:51.950Z,75.10
2023-01-21T20:51:24.254Z,75.22
2023-01-21T20:53:54.285Z,74.97
2023-01-21T20:56:24.964Z,74.81
2023-01-21T20:58:54.542Z,75.10
2023-01-21T21:01:25.369Z,75.37
2023-01-21T21:03:55.173Z,75.27
2023-01-21T21:06:28.757Z,75.20
2023-01-21T21:08:58.308Z,74.85
2023-01-21T21:11:28.098Z,75.06
2023-01-21T21:13:57.599Z,75.09
2023-01-21T21:16:30.024Z,75.06
2023-01-21T21:19:00.759Z,74.91
2023-01-21T21:21:32.962Z,74.89
2023-01-21T21:24:06.478Z,75.16
2023-01-21T21:26:37.536Z,75.07
2023-01-21T21:29:07.044Z,74.83
2023-01-21T21:31:36.805Z,75.02
2023-01-21T21:34:06.467Z,74.94
2023-01-21T21:36:38.702Z,74.98
2023-01-21T21:39:08.327Z,74.91
2023-01-21T21:41:50.341Z,74.79
2023-01-21T21:44:20.032Z,74.74
2023-01-21T21:47:07.818Z,74.70
2023-01-21T21:49:37.595Z,74.71
2023-01-21T21:52:09.668Z,74.37
2023-01-21T21:54:38.896Z,74.46
2023-01-21T21:57:08.103Z,74.01
2023-01-21T21:59:37.330Z,74.05
2023-01-21T22:02:06.981Z,73.99
2023-01-21T22:04:36.138Z,73.77
2023-01-21T22:07:05.377Z,74.34
2023-01-21T22:09:37.224Z,74.69
2023-01-21T22:12:06.710Z,75.47
2023-01-21T22:14:35.928Z,76.00
2023-01-21T22:17:05.099Z,77.09
2023-01-21T22:19:36.273Z,77.98
2023-01-21T22:22:06.882Z,78.55
2023-01-21T22:24:38.679Z,78.78
2023-01-21T22:27:08.429Z,79.18
2023-01-21T22:29:37.613Z,78.89
2023-01-21T22:32:07.168Z,79.17
2023-01-21T22:34:36.453Z,79.17
2023-01-21T22:37:05.706Z,79.91
2023-01-21T22:39:34.901Z,80.29
2023-01-21T22:42:06.739Z,80.52
2023-01-21T22:44:35.981Z,80.41
2023-01-21T22:47:05.197Z,80.50
2023-01-21T22:49:34.389Z,80.12
2023-01-21T22:52:03.606Z,80.16
2023-01-21T22:54:32.786Z,80.23
2023-01-21T22:57:02.008Z,80.57
2023-01-21T22:59:34.098Z,81.06
2023-01-21T23:02:03.405Z,80.61
2023-01-21T23:04:32.583Z,80.44
2023-01-21T23:07:01.815Z,80.61
2023-01-21T23:09:31.136Z,80.54
2023-01-21T23:12:00.360Z,80.93
2023-01-21T23:14:29.601Z,80.94
2023-01-21T23:17:01.548Z,81.35
2023-01-21T23:19:30.844Z,81.91
2023-01-21T23:22:00.100Z,82.23
2023-01-21T23:24:29.397Z,82.51
2023-01-21T23:26:58.660Z,82.35
2023-01-21T23:29:28.027Z,82.66
2023-01-21T23:31:57.493Z,82.39
2023-01-21T23:34:29.524Z,83.03
2023-01-21T23:36:58.750Z,83.12
2023-01-21T23:39:28.029Z,83.16
2023-01-21T23:41:57.571Z,83.10
2023-01-21T23:44:26.839Z,83.43
2023-01-21T23:46:56.035Z,83.68
2023-01-21T23:49:25.322Z,83.81
2023-01-21T23:51:57.142Z,84.36
2023-01-21T23:54:26.467Z,84.09
2023-01-21T23:56:57.575Z,84.27
2023-01-21T23:59:26.913Z,85.72
